sensor_id;sensor_type;location;lat;lon;timestamp;P1;P2;P0
68198;PMS7003;55021;51.554;17.044;2022-11-21T00:03:15;66.75;54.00;33.50
68198;PMS7003;55021;51.554;17.044;2022-11-21T00:18:18;72.75;54.75;30.00
68198;PMS7003;55021;51.554;17.044;2022-11-21T00:33:20;71.00;55.50;30.50
68198;PMS7003;55021;51.554;17.044;2022-11-21T00:48:23;69.25;53.25;32.25
68198;PMS7003;55021;51.554;17.044;2022-11-21T01:03:26;70.25;53.75;27.00
68198;PMS7003;55021;51.554;17.044;2022-11-21T01:18:28;63.75;51.50;28.75
68198;PMS7003;55021;51.554;17.044;2022-11-21T01:33:31;59.50;44.00;25.25
68198;PMS7003;55021;51.554;17.044;2022-11-21T01:48:37;68.50;50.75;30.00
68198;PMS7003;55021;51.554;17.044;2022-11-21T02:03:44;70.25;52.75;30.25
68198;PMS7003;55021;51.554;17.044;2022-11-21T02:18:50;73.25;52.75;30.50
68198;PMS7003;55021;51.554;17.044;2022-11-21T02:33:53;72.00;57.00;35.00
68198;PMS7003;55021;51.554;17.044;2022-11-21T02:48:55;74.00;54.25;34.75
68198;PMS7003;55021;51.554;17.044;2022-11-21T03:04:00;65.75;51.75;31.00
68198;PMS7003;55021;51.554;17.044;2022-11-21T03:19:02;65.00;50.25;31.00
68198;PMS7003;55021;51.554;17.044;2022-11-21T03:34:05;68.00;51.00;31.00
68198;PMS7003;55021;51.554;17.044;2022-11-21T03:49:08;65.50;51.75;32.75
68198;PMS7003;55021;51.554;17.044;2022-11-21T04:04:11;53.25;46.75;28.50
68198;PMS7003;55021;51.554;17.044;2022-11-21T04:19:14;56.50;49.25;27.25
68198;PMS7003;55021;51.554;17.044;2022-11-21T04:34:16;57.50;46.50;26.75
68198;PMS7003;55021;51.554;17.044;2022-11-21T04:49:19;55.50;42.00;25.25
68198;PMS7003;55021;51.554;17.044;2022-11-21T05:04:21;57.25;45.75;26.25
68198;PMS7003;55021;51.554;17.044;2022-11-21T05:19:24;57.00;45.50;24.50
68198;PMS7003;55021;51.554;17.044;2022-11-21T05:34:27;52.75;45.25;26.25
68198;PMS7003;55021;51.554;17.044;2022-11-21T05:49:29;50.50;43.75;25.25
68198;PMS7003;55021;51.554;17.044;2022-11-21T06:04:32;62.75;50.25;30.75
68198;PMS7003;55021;51.554;17.044;2022-11-21T06:19:35;72.00;50.00;27.75
68198;PMS7003;55021;51.554;17.044;2022-11-21T06:34:38;57.50;47.75;25.75
68198;PMS7003;55021;51.554;17.044;2022-11-21T06:49:41;61.50;46.25;28.50
68198;PMS7003;55021;51.554;17.044;2022-11-21T07:04:43;59.00;46.00;25.25
68198;PMS7003;55021;51.554;17.044;2022-11-21T07:19:46;54.75;47.00;26.75
68198;PMS7003;55021;51.554;17.044;2022-11-21T07:34:48;58.75;45.75;26.50
68198;PMS7003;55021;51.554;17.044;2022-11-21T07:49:51;52.75;45.75;28.75
68198;PMS7003;55021;51.554;17.044;2022-11-21T08:04:53;55.25;46.50;28.25
68198;PMS7003;55021;51.554;17.044;2022-11-21T08:19:56;59.75;44.75;26.00
68198;PMS7003;55021;51.554;17.044;2022-11-21T08:34:58;60.00;46.75;28.25
68198;PMS7003;55021;51.554;17.044;2022-11-21T08:50:02;72.25;52.50;32.25
68198;PMS7003;55021;51.554;17.044;2022-11-21T09:05:05;58.25;49.50;30.75
68198;PMS7003;55021;51.554;17.044;2022-11-21T09:20:08;144.75;115.25;69.50
68198;PMS7003;55021;51.554;17.044;2022-11-21T09:35:11;223.50;160.00;84.25
68198;PMS7003;55021;51.554;17.044;2022-11-21T09:50:18;260.75;193.75;99.50
68198;PMS7003;55021;51.554;17.044;2022-11-21T10:05:28;194.00;149.25;85.50
68198;PMS7003;55021;51.554;17.044;2022-11-21T10:20:43;78.75;57.50;36.75
68198;PMS7003;55021;51.554;17.044;2022-11-21T10:35:54;129.67;105.33;63.00
68198;PMS7003;55021;51.554;17.044;2022-11-21T10:51:12;86.00;62.00;37.25
68198;PMS7003;55021;51.554;17.044;2022-11-21T11:06:27;74.25;56.50;34.50
68198;PMS7003;55021;51.554;17.044;2022-11-21T11:21:34;63.75;48.00;30.25
68198;PMS7003;55021;51.554;17.044;2022-11-21T11:36:54;56.25;43.25;28.25
68198;PMS7003;55021;51.554;17.044;2022-11-21T11:52:02;46.50;38.00;20.75
68198;PMS7003;55021;51.554;17.044;2022-11-21T12:07:08;50.50;37.75;21.25
68198;PMS7003;55021;51.554;17.044;2022-11-21T12:22:18;48.75;37.00;22.00
68198;PMS7003;55021;51.554;17.044;2022-11-21T12:37:24;46.75;40.75;22.25
68198;PMS7003;55021;51.554;17.044;2022-11-21T12:52:35;49.50;42.50;24.75
68198;PMS7003;55021;51.554;17.044;2022-11-21T13:07:41;56.75;41.50;25.25
68198;PMS7003;55021;51.554;17.044;2022-11-21T13:22:53;57.75;47.50;26.00
68198;PMS7003;55021;51.554;17.044;2022-11-21T13:38:00;73.75;52.25;30.25
68198;PMS7003;55021;51.554;17.044;2022-11-21T13:53:06;76.25;55.25;32.50
68198;PMS7003;55021;51.554;17.044;2022-11-21T14:08:26;77.50;60.25;35.75
68198;PMS7003;55021;51.554;17.044;2022-11-21T14:23:30;80.25;57.25;34.50
68198;PMS7003;55021;51.554;17.044;2022-11-21T14:38:41;79.25;60.00;33.75
68198;PMS7003;55021;51.554;17.044;2022-11-21T14:53:44;86.50;63.25;35.50
68198;PMS7003;55021;51.554;17.044;2022-11-21T15:08:49;86.00;62.75;37.00
68198;PMS7003;55021;51.554;17.044;2022-11-21T15:23:53;86.50;64.00;35.75
68198;PMS7003;55021;51.554;17.044;2022-11-21T15:39:00;80.25;59.25;36.00
68198;PMS7003;55021;51.554;17.044;2022-11-21T16:10:07;74.75;52.00;29.75
68198;PMS7003;55021;51.554;17.044;2022-11-21T16:25:10;56.00;44.00;22.75
68198;PMS7003;55021;51.554;17.044;2022-11-21T16:40:13;64.25;46.25;26.00
68198;PMS7003;55021;51.554;17.044;2022-11-21T16:55:15;73.25;52.75;27.25
68198;PMS7003;55021;51.554;17.044;2022-11-21T17:10:18;78.00;55.25;33.50
68198;PMS7003;55021;51.554;17.044;2022-11-21T17:25:21;75.25;52.75;30.75
68198;PMS7003;55021;51.554;17.044;2022-11-21T17:40:24;73.50;53.75;32.50
68198;PMS7003;55021;51.554;17.044;2022-11-21T17:55:26;67.00;48.75;25.00
68198;PMS7003;55021;51.554;17.044;2022-11-21T18:10:29;71.50;49.50;29.25
68198;PMS7003;55021;51.554;17.044;2022-11-21T18:25:34;58.50;45.25;25.00
68198;PMS7003;55021;51.554;17.044;2022-11-21T18:40:37;58.50;43.25;25.00
68198;PMS7003;55021;51.554;17.044;2022-11-21T18:55:39;59.25;47.25;27.50
68198;PMS7003;55021;51.554;17.044;2022-11-21T19:10:42;54.75;43.00;22.75
68198;PMS7003;55021;51.554;17.044;2022-11-21T19:25:44;60.50;42.75;21.50
68198;PMS7003;55021;51.554;17.044;2022-11-21T19:40:47;69.50;51.25;27.00
68198;PMS7003;55021;51.554;17.044;2022-11-21T19:55:49;49.75;39.25;21.00
68198;PMS7003;55021;51.554;17.044;2022-11-21T20:10:52;82.00;59.75;35.75
68198;PMS7003;55021;51.554;17.044;2022-11-21T20:25:55;84.00;60.25;34.25
68198;PMS7003;55021;51.554;17.044;2022-11-21T20:40:57;84.00;62.00;39.25
68198;PMS7003;55021;51.554;17.044;2022-11-21T20:56:01;63.50;48.00;28.75
68198;PMS7003;55021;51.554;17.044;2022-11-21T21:11:06;69.75;53.25;33.00
68198;PMS7003;55021;51.554;17.044;2022-11-21T21:26:12;83.00;59.50;34.75
68198;PMS7003;55021;51.554;17.044;2022-11-21T21:41:15;62.50;50.00;26.25
68198;PMS7003;55021;51.554;17.044;2022-11-21T21:56:19;50.25;42.50;25.75
68198;PMS7003;55021;51.554;17.044;2022-11-21T22:11:23;57.50;38.00;21.25
68198;PMS7003;55021;51.554;17.044;2022-11-21T22:26:27;60.25;46.25;25.75
68198;PMS7003;55021;51.554;17.044;2022-11-21T22:41:30;51.50;41.75;22.75
68198;PMS7003;55021;51.554;17.044;2022-11-21T22:56:32;57.00;46.25;27.00
68198;PMS7003;55021;51.554;17.044;2022-11-21T23:11:35;65.75;50.50;27.25
68198;PMS7003;55021;51.554;17.044;2022-11-21T23:26:38;59.50;43.75;23.25
68198;PMS7003;55021;51.554;17.044;2022-11-21T23:41:40;64.50;48.50;31.75
68198;PMS7003;55021;51.554;17.044;2022-11-21T23:56:43;61.75;47.50;27.75
